createdAt,value
2022-11-01T00:02:01.130Z,26.60
2022-11-01T00:04:27.476Z,22.70
2022-11-01T00:06:53.861Z,21.75
2022-11-01T00:09:20.185Z,23.35
2022-11-01T00:11:46.837Z,23.40
2022-11-01T00:14:15.123Z,23.17
2022-11-01T00:16:41.841Z,22.08
2022-11-01T00:19:08.753Z,23.08
2022-11-01T00:21:35.468Z,27.33
2022-11-01T00:24:01.814Z,26.20
2022-11-01T00:26:28.177Z,29.35
2022-11-01T00:28:54.559Z,24.75
2022-11-01T00:31:21.580Z,26.48
2022-11-01T00:33:48.221Z,27.00
2022-11-01T00:36:15.073Z,22.58
2022-11-01T00:38:41.533Z,25.00
2022-11-01T00:41:08.404Z,26.20
2022-11-01T00:43:36.023Z,29.55
2022-11-01T00:46:03.570Z,20.15
2022-11-01T00:48:30.224Z,34.20
2022-11-01T00:50:56.528Z,25.55
2022-11-01T00:53:22.984Z,21.05
2022-11-01T00:55:49.294Z,23.70
2022-11-01T00:58:15.637Z,25.30
2022-11-01T01:00:42.012Z,29.25
2022-11-01T01:03:08.524Z,30.77
2022-11-01T01:05:35.552Z,26.05
2022-11-01T01:08:02.556Z,23.90
2022-11-01T01:10:29.235Z,32.05
2022-11-01T01:12:55.602Z,25.30
2022-11-01T01:15:21.934Z,29.05
2022-11-01T01:17:48.382Z,28.20
2022-11-01T01:20:14.720Z,25.45
2022-11-01T01:22:41.139Z,26.83
2022-11-01T01:25:07.924Z,22.58
2022-11-01T01:27:34.303Z,22.02
2022-11-01T01:30:00.615Z,24.48
2022-11-01T01:32:26.972Z,25.17
2022-11-01T01:34:53.299Z,23.00
2022-11-01T01:37:20.148Z,24.33
2022-11-01T01:39:46.668Z,24.52
2022-11-01T01:42:33.053Z,23.02
2022-11-01T01:44:59.301Z,21.83
2022-11-01T01:47:34.197Z,25.33
2022-11-01T01:52:44.069Z,18.20
2022-11-01T01:55:12.490Z,22.67
2022-11-01T01:57:40.848Z,22.08
2022-11-01T02:00:08.336Z,21.13
2022-11-01T02:02:34.918Z,24.48
2022-11-01T02:05:08.539Z,23.60
2022-11-01T02:07:34.893Z,22.13
2022-11-01T02:10:01.405Z,20.13
2022-11-01T02:12:35.272Z,23.52
2022-11-01T02:15:03.085Z,17.00
2022-11-01T02:18:08.722Z,20.52
2022-11-01T02:20:53.148Z,24.90
2022-11-01T02:23:42.312Z,21.63
2022-11-01T02:26:14.562Z,22.65
2022-11-01T02:29:05.642Z,27.27
2022-11-01T02:32:17.967Z,24.27
2022-11-01T02:34:46.759Z,27.63
2022-11-01T02:37:28.117Z,24.27
2022-11-01T02:40:01.237Z,23.20
2022-11-01T02:42:32.533Z,26.35
2022-11-01T02:45:08.957Z,23.65
2022-11-01T02:47:38.497Z,23.48
2022-11-01T02:50:09.405Z,21.30
2022-11-01T02:52:40.148Z,24.80
2022-11-01T02:55:18.966Z,24.48
2022-11-01T02:57:46.421Z,23.33
2022-11-01T03:00:25.039Z,20.05
2022-11-01T03:03:20.707Z,21.35
2022-11-01T03:08:42.565Z,21.05
2022-11-01T03:11:19.509Z,20.67
2022-11-01T03:14:09.965Z,19.60
2022-11-01T03:16:48.599Z,19.38
2022-11-01T03:19:51.549Z,22.63
2022-11-01T03:22:30.957Z,22.45
2022-11-01T03:25:03.013Z,26.23
2022-11-01T03:27:37.881Z,22.00
2022-11-01T03:32:48.364Z,22.42
2022-11-01T03:35:38.600Z,21.27
2022-11-01T03:38:10.738Z,19.75
2022-11-01T03:40:41.464Z,19.48
2022-11-01T03:43:11.893Z,27.13
2022-11-01T03:45:39.592Z,20.15
2022-11-01T03:48:06.534Z,18.92
2022-11-01T03:50:34.043Z,24.13
2022-11-01T03:53:00.628Z,23.05
2022-11-01T03:55:27.026Z,20.80
2022-11-01T03:57:56.369Z,26.15
2022-11-01T04:00:31.463Z,24.50
2022-11-01T04:02:59.134Z,20.00
2022-11-01T04:05:27.857Z,16.75
2022-11-01T04:07:54.352Z,18.40
2022-11-01T04:10:22.267Z,21.20
2022-11-01T04:12:49.820Z,16.92
2022-11-01T04:15:17.857Z,23.35
2022-11-01T04:17:44.172Z,23.35
2022-11-01T04:20:10.665Z,19.42
2022-11-01T04:22:39.345Z,20.33
2022-11-01T04:25:05.744Z,19.00
2022-11-01T04:27:32.058Z,16.45
2022-11-01T04:29:58.349Z,20.73
2022-11-01T04:32:24.632Z,21.83
2022-11-01T04:34:50.957Z,18.90
2022-11-01T04:37:17.249Z,25.60
2022-11-01T04:39:43.557Z,22.98
2022-11-01T04:42:09.872Z,25.30
2022-11-01T04:44:36.181Z,24.40
2022-11-01T04:47:02.548Z,21.98
2022-11-01T04:49:28.833Z,22.23
2022-11-01T04:51:55.146Z,21.38
2022-11-01T04:54:21.466Z,25.00
2022-11-01T04:56:47.757Z,20.77
2022-11-01T04:59:14.091Z,25.88
2022-11-01T05:01:40.525Z,18.92
2022-11-01T05:04:06.967Z,22.73
2022-11-01T05:06:33.285Z,21.25
2022-11-01T05:08:59.673Z,22.95
2022-11-01T05:11:26.079Z,18.83
2022-11-01T05:13:52.477Z,20.38
2022-11-01T05:16:20.112Z,17.70
2022-11-01T05:18:47.546Z,15.30
2022-11-01T05:21:13.922Z,18.88
2022-11-01T05:23:40.230Z,12.60
2022-11-01T05:26:06.742Z,19.30
2022-11-01T05:28:33.238Z,13.02
2022-11-01T05:30:59.613Z,14.52
2022-11-01T05:33:26.033Z,12.85
2022-11-01T05:35:52.404Z,14.55
2022-11-01T05:38:18.705Z,10.43
2022-11-01T05:40:45.097Z,15.38
2022-11-01T05:43:11.436Z,13.50
2022-11-01T05:45:37.786Z,13.13
2022-11-01T05:48:04.691Z,10.75
2022-11-01T05:50:31.346Z,11.20
2022-11-01T05:53:08.206Z,8.93
2022-11-01T05:55:35.371Z,12.32
2022-11-01T05:58:02.331Z,11.63
2022-11-01T06:00:28.669Z,12.68
2022-11-01T06:02:58.106Z,11.55
2022-11-01T06:05:25.456Z,7.75
2022-11-01T06:07:51.783Z,13.98
2022-11-01T06:10:18.429Z,12.38
2022-11-01T06:12:44.765Z,9.52
2022-11-01T06:15:11.617Z,9.02
2022-11-01T06:17:37.938Z,10.65
2022-11-01T06:20:05.533Z,13.55
2022-11-01T06:22:34.236Z,9.77
2022-11-01T06:25:00.553Z,11.65
2022-11-01T06:27:28.109Z,11.52
2022-11-01T06:29:54.427Z,7.40
2022-11-01T06:32:20.785Z,13.32
2022-11-01T06:34:47.080Z,13.80
2022-11-01T06:37:13.391Z,9.57
2022-11-01T06:39:39.777Z,12.48
2022-11-01T06:42:06.157Z,12.75
2022-11-01T06:44:32.489Z,9.98
2022-11-01T06:46:58.821Z,13.35
2022-11-01T06:49:25.118Z,12.10
2022-11-01T06:51:51.489Z,12.50
2022-11-01T06:54:17.795Z,10.93
2022-11-01T06:56:47.340Z,13.30
2022-11-01T06:59:14.136Z,10.73
2022-11-01T07:01:40.599Z,11.68
2022-11-01T07:04:07.049Z,10.10
2022-11-01T07:06:33.429Z,8.65
2022-11-01T07:09:00.021Z,8.88
2022-11-01T07:11:31.254Z,9.82
2022-11-01T07:13:58.128Z,13.18
2022-11-01T07:16:25.206Z,7.60
2022-11-01T07:18:52.137Z,15.77
2022-11-01T07:21:18.551Z,10.82
2022-11-01T07:23:44.927Z,11.15
2022-11-01T07:26:11.237Z,8.07
2022-11-01T07:28:37.623Z,12.45
2022-11-01T07:31:04.050Z,8.88
2022-11-01T07:33:30.408Z,11.77
2022-11-01T07:35:56.797Z,12.30
2022-11-01T07:38:23.198Z,7.47
2022-11-01T07:40:49.849Z,10.57
2022-11-01T07:43:17.848Z,11.23
2022-11-01T07:45:44.173Z,9.60
2022-11-01T07:48:13.482Z,7.50
2022-11-01T07:50:41.440Z,11.40
2022-11-01T07:53:10.301Z,8.75
2022-11-01T07:55:37.232Z,8.80
2022-11-01T07:58:04.937Z,10.82
2022-11-01T08:00:31.856Z,10.05
2022-11-01T08:03:08.932Z,8.90
2022-11-01T08:05:35.884Z,9.82
2022-11-01T08:08:03.069Z,8.30
2022-11-01T08:10:29.720Z,7.05
2022-11-01T08:13:04.707Z,10.38
2022-11-01T08:15:31.198Z,7.82
2022-11-01T08:17:58.354Z,10.07
2022-11-01T08:20:25.931Z,7.35
2022-11-01T08:22:53.334Z,5.55
2022-11-01T08:25:20.504Z,11.02
2022-11-01T08:27:47.522Z,8.18
2022-11-01T08:30:15.772Z,8.32
2022-11-01T08:32:42.115Z,8.38
2022-11-01T08:35:09.201Z,7.53
2022-11-01T08:37:35.505Z,7.43
2022-11-01T08:40:01.942Z,10.55
2022-11-01T08:42:28.245Z,11.15
2022-11-01T08:44:54.559Z,8.07
2022-11-01T08:47:20.889Z,12.93
2022-11-01T08:49:47.216Z,6.25
2022-11-01T08:52:13.532Z,8.52
2022-11-01T08:54:39.857Z,5.43
2022-11-01T08:57:06.160Z,5.40
2022-11-01T08:59:32.486Z,6.85
2022-11-01T09:01:58.887Z,4.57
2022-11-01T09:04:25.351Z,7.72
2022-11-01T09:06:51.671Z,7.35
2022-11-01T09:09:18.071Z,4.88
2022-11-01T09:11:44.417Z,4.90
2022-11-01T09:14:10.717Z,6.35
2022-11-01T09:16:37.040Z,4.75
2022-11-01T09:19:03.443Z,7.50
2022-11-01T09:21:31.889Z,6.18
2022-11-01T09:23:58.608Z,4.78
2022-11-01T09:26:24.958Z,9.20
2022-11-01T09:28:51.289Z,2.63
2022-11-01T09:31:21.536Z,4.88
2022-11-01T09:33:48.301Z,8.73
2022-11-01T09:36:14.629Z,4.25
2022-11-01T09:38:40.925Z,4.30
2022-11-01T09:41:24.300Z,3.08
2022-11-01T09:43:52.826Z,3.67
2022-11-01T09:51:25.743Z,4.57
2022-11-01T09:53:59.321Z,5.95
2022-11-01T09:56:30.510Z,5.60
2022-11-01T09:59:28.954Z,5.20
2022-11-01T10:02:10.854Z,10.35
2022-11-01T10:05:05.266Z,7.78
2022-11-01T10:07:49.840Z,7.40
2022-11-01T10:10:40.131Z,7.43
2022-11-01T10:13:37.026Z,6.97
2022-11-01T10:16:33.413Z,6.75
2022-11-01T10:19:05.727Z,13.80
2022-11-01T10:21:39.048Z,8.95
2022-11-01T10:24:06.914Z,8.25
2022-11-01T10:26:33.844Z,6.57
2022-11-01T10:29:29.713Z,9.43
2022-11-01T10:31:56.686Z,7.32
2022-11-01T10:34:26.445Z,7.95
2022-11-01T10:36:57.401Z,6.72
2022-11-01T10:40:03.015Z,5.88
2022-11-01T10:42:30.230Z,8.88
2022-11-01T10:45:01.237Z,4.85
2022-11-01T10:47:28.026Z,12.00
2022-11-01T10:50:06.036Z,7.35
2022-11-01T10:52:46.001Z,5.20
2022-11-01T10:55:15.806Z,6.85
2022-11-01T10:57:47.200Z,6.88
2022-11-01T11:00:17.378Z,9.50
2022-11-01T11:02:48.551Z,8.85
2022-11-01T11:05:15.713Z,10.85
2022-11-01T11:07:43.783Z,8.07
2022-11-01T11:10:23.979Z,8.43
2022-11-01T11:12:55.481Z,9.15
2022-11-01T11:15:43.833Z,9.10
2022-11-01T11:18:19.472Z,8.88
2022-11-01T11:20:50.293Z,10.90
2022-11-01T11:23:19.561Z,10.15
2022-11-01T11:25:45.923Z,9.88
2022-11-01T11:28:23.627Z,11.40
2022-11-01T11:30:50.123Z,9.43
2022-11-01T11:33:18.157Z,9.90
2022-11-01T11:35:53.378Z,11.15
2022-11-01T11:38:40.272Z,15.80
2022-11-01T11:41:09.251Z,8.80
2022-11-01T11:43:35.561Z,11.32
2022-11-01T11:46:06.052Z,12.48
2022-11-01T11:48:32.713Z,11.07
2022-11-01T11:51:04.802Z,9.70
2022-11-01T11:53:31.564Z,17.13
2022-11-01T11:56:01.093Z,11.98
2022-11-01T11:58:43.198Z,10.70
2022-11-01T12:01:14.893Z,10.02
2022-11-01T12:03:53.139Z,9.57
2022-11-01T12:06:21.933Z,11.20
2022-11-01T12:08:51.288Z,12.25
2022-11-01T12:11:17.891Z,12.95
2022-11-01T12:13:59.350Z,13.00
2022-11-01T12:16:25.807Z,15.27
2022-11-01T12:19:00.661Z,12.65
2022-11-01T12:24:23.144Z,13.00
2022-11-01T12:26:51.927Z,13.98
2022-11-01T12:29:32.573Z,11.55
2022-11-01T12:32:12.234Z,16.08
2022-11-01T12:34:42.672Z,18.95
2022-11-01T12:37:33.796Z,12.35
2022-11-01T12:40:36.661Z,13.73
2022-11-01T12:43:16.234Z,8.63
2022-11-01T12:45:47.758Z,7.55
2022-11-01T12:48:21.888Z,9.25
2022-11-01T12:50:55.717Z,17.85
2022-11-01T12:53:28.217Z,14.10
2022-11-01T12:55:57.865Z,10.48
2022-11-01T12:58:25.015Z,9.95
2022-11-01T13:01:07.689Z,12.90
2022-11-01T13:03:59.283Z,10.68
2022-11-01T13:06:36.947Z,10.65
2022-11-01T13:09:38.776Z,12.48
2022-11-01T13:12:31.012Z,6.63
2022-11-01T13:14:57.256Z,9.35
2022-11-01T13:17:46.378Z,14.77
2022-11-01T13:20:40.596Z,14.35
2022-11-01T13:23:36.848Z,11.45
2022-11-01T13:26:18.601Z,14.05
2022-11-01T13:29:02.773Z,11.32
2022-11-01T13:31:44.435Z,11.32
2022-11-01T13:34:44.813Z,10.25
2022-11-01T13:37:20.911Z,15.57
2022-11-01T13:39:50.160Z,11.00
2022-11-01T13:42:20.705Z,12.30
2022-11-01T13:44:52.056Z,8.52
2022-11-01T13:47:27.341Z,13.63
2022-11-01T13:50:18.383Z,11.88
2022-11-01T13:53:04.488Z,10.23
2022-11-01T13:55:38.808Z,9.00
2022-11-01T13:58:06.057Z,12.13
2022-11-01T14:00:44.282Z,14.70
2022-11-01T14:03:19.333Z,11.00
2022-11-01T14:05:46.238Z,13.02
2022-11-01T14:08:14.439Z,6.50
2022-11-01T14:10:49.211Z,9.70
2022-11-01T14:15:55.829Z,9.75
2022-11-01T14:18:22.231Z,10.55
2022-11-01T14:20:55.818Z,10.93
2022-11-01T14:23:28.263Z,11.10
2022-11-01T14:26:19.312Z,11.13
2022-11-01T14:28:47.911Z,9.57
2022-11-01T14:31:17.297Z,10.90
2022-11-01T14:33:44.817Z,14.63
2022-11-01T14:36:13.019Z,13.93
2022-11-01T14:38:53.654Z,12.18
2022-11-01T14:41:22.454Z,13.93
2022-11-01T14:43:52.373Z,8.25
2022-11-01T14:46:25.126Z,9.23
2022-11-01T14:48:59.109Z,10.15
2022-11-01T14:51:34.977Z,11.37
2022-11-01T14:54:36.907Z,12.23
2022-11-01T14:57:17.981Z,8.38
2022-11-01T14:59:44.317Z,10.45
2022-11-01T15:02:11.269Z,11.88
2022-11-01T15:04:43.009Z,9.23
2022-11-01T15:07:26.220Z,13.48
2022-11-01T15:09:57.420Z,14.50
2022-11-01T15:12:26.205Z,13.15
2022-11-01T15:14:55.251Z,10.65
2022-11-01T15:17:24.286Z,12.93
2022-11-01T15:19:51.882Z,10.20
2022-11-01T15:22:20.906Z,11.75
2022-11-01T15:24:51.261Z,13.20
2022-11-01T15:27:20.890Z,11.25
2022-11-01T15:29:48.379Z,9.20
2022-11-01T15:32:28.438Z,8.90
2022-11-01T15:34:57.191Z,11.77
2022-11-01T15:37:26.594Z,18.50
2022-11-01T15:39:52.950Z,12.43
2022-11-01T15:42:22.278Z,11.70
2022-11-01T15:44:48.587Z,12.25
2022-11-01T15:47:19.839Z,10.05
2022-11-01T15:50:02.902Z,9.05
2022-11-01T15:52:31.903Z,7.65
2022-11-01T15:55:05.088Z,8.82
2022-11-01T15:57:36.714Z,7.70
2022-11-01T16:00:05.411Z,13.02
2022-11-01T16:02:45.039Z,10.50
2022-11-01T16:05:16.169Z,7.57
2022-11-01T16:07:43.869Z,9.45
2022-11-01T16:10:25.932Z,11.23
2022-11-01T16:12:54.479Z,10.57
2022-11-01T16:15:25.357Z,6.75
2022-11-01T16:17:54.405Z,11.63
2022-11-01T16:20:30.390Z,8.45
2022-11-01T16:22:59.476Z,7.28
2022-11-01T16:25:28.230Z,8.43
2022-11-01T16:27:57.877Z,6.85
2022-11-01T16:30:35.966Z,8.43
2022-11-01T16:33:23.663Z,7.20
2022-11-01T16:35:52.222Z,6.90
2022-11-01T16:38:33.587Z,7.22
2022-11-01T16:41:01.729Z,7.80
2022-11-01T16:43:31.016Z,9.10
2022-11-01T16:45:58.863Z,12.70
2022-11-01T16:48:28.101Z,8.82
2022-11-01T16:50:56.370Z,9.65
2022-11-01T16:53:25.642Z,10.55
2022-11-01T16:56:05.920Z,9.75
2022-11-01T16:58:47.375Z,8.95
2022-11-01T17:01:23.558Z,13.07
2022-11-01T17:03:50.177Z,9.82
2022-11-01T17:06:16.741Z,8.60
2022-11-01T17:08:43.060Z,11.48
2022-11-01T17:11:09.427Z,9.77
2022-11-01T17:13:36.549Z,9.18
2022-11-01T17:16:04.567Z,8.73
2022-11-01T17:18:36.198Z,10.45
2022-11-01T17:21:06.682Z,9.43
2022-11-01T17:23:34.148Z,10.60
2022-11-01T17:26:02.483Z,6.55
2022-11-01T17:28:28.806Z,9.35
2022-11-01T17:30:55.314Z,11.40
2022-11-01T17:33:22.109Z,10.65
2022-11-01T17:35:48.765Z,10.82
2022-11-01T17:38:30.068Z,7.40
2022-11-01T17:40:56.911Z,8.65
2022-11-01T17:43:23.409Z,10.10
2022-11-01T17:45:50.577Z,9.20
2022-11-01T17:48:17.826Z,8.15
2022-11-01T17:50:44.581Z,8.52
2022-11-01T17:53:13.384Z,6.75
2022-11-01T17:55:40.417Z,8.63
2022-11-01T17:58:07.496Z,6.35
2022-11-01T18:00:33.880Z,4.63
2022-11-01T18:03:00.213Z,6.78
2022-11-01T18:05:26.637Z,9.07
2022-11-01T18:07:53.250Z,9.90
2022-11-01T18:10:21.288Z,6.63
2022-11-01T18:12:57.167Z,9.07
2022-11-01T18:15:38.071Z,8.13
2022-11-01T18:18:33.660Z,8.15
2022-11-01T18:21:25.843Z,9.20
2022-11-01T18:23:55.777Z,7.40
2022-11-01T18:26:25.765Z,7.43
2022-11-01T18:28:59.924Z,6.55
2022-11-01T18:31:34.815Z,9.25
2022-11-01T18:36:47.336Z,13.85
2022-11-01T18:39:26.014Z,7.03
2022-11-01T18:41:52.430Z,9.07
2022-11-01T18:44:18.764Z,8.85
2022-11-01T18:46:56.431Z,5.05
2022-11-01T18:49:26.570Z,7.50
2022-11-01T18:51:53.608Z,7.20
2022-11-01T18:54:25.493Z,6.43
2022-11-01T18:56:57.719Z,8.82
2022-11-01T18:59:32.459Z,8.80
2022-11-01T19:02:11.129Z,6.38
2022-11-01T19:04:39.913Z,8.43
2022-11-01T19:07:13.532Z,8.02
2022-11-01T19:09:41.324Z,6.47
2022-11-01T19:12:17.228Z,7.05
2022-11-01T19:14:46.497Z,10.38
2022-11-01T19:17:24.180Z,6.80
2022-11-01T19:19:52.472Z,8.88
2022-11-01T19:22:33.027Z,6.13
2022-11-01T19:25:01.401Z,6.57
2022-11-01T19:27:28.630Z,8.50
2022-11-01T19:29:58.111Z,9.82
2022-11-01T19:32:25.983Z,8.07
2022-11-01T19:34:53.792Z,9.25
2022-11-01T19:37:31.825Z,8.32
2022-11-01T19:40:01.347Z,11.73
2022-11-01T19:42:30.846Z,13.63
2022-11-01T19:44:58.630Z,9.20
2022-11-01T19:47:35.509Z,10.30
2022-11-01T19:50:01.989Z,8.05
2022-11-01T19:52:32.621Z,10.38
2022-11-01T19:54:58.961Z,6.43
2022-11-01T19:57:31.587Z,9.15
2022-11-01T20:00:14.929Z,7.80
2022-11-01T20:02:41.500Z,11.07
2022-11-01T20:05:23.037Z,10.00
2022-11-01T20:07:50.264Z,8.90
2022-11-01T20:10:17.673Z,6.35
2022-11-01T20:12:44.954Z,8.95
2022-11-01T20:15:11.435Z,10.70
2022-11-01T20:17:37.849Z,10.07
2022-11-01T20:20:04.460Z,7.90
2022-11-01T20:22:30.799Z,7.28
2022-11-01T20:24:57.236Z,4.53
2022-11-01T20:27:23.597Z,5.88
2022-11-01T20:29:50.003Z,8.85
2022-11-01T20:32:16.422Z,11.77
2022-11-01T20:34:42.815Z,8.52
2022-11-01T20:37:27.543Z,7.50
2022-11-01T20:39:54.747Z,6.95
2022-11-01T20:42:21.092Z,8.45
2022-11-01T20:44:47.401Z,7.13
2022-11-01T20:47:13.748Z,9.40
2022-11-01T20:49:40.544Z,10.10
2022-11-01T20:52:33.636Z,5.95
2022-11-01T20:54:53.257Z,10.57
2022-11-01T20:57:27.497Z,7.47
2022-11-01T20:59:54.736Z,10.48
2022-11-01T21:02:21.172Z,8.15
2022-11-01T21:04:54.993Z,10.00
2022-11-01T21:07:21.369Z,5.68
2022-11-01T21:09:47.780Z,13.25
2022-11-01T21:12:32.219Z,10.20
2022-11-01T21:15:02.310Z,11.47
2022-11-01T21:17:29.003Z,12.48
2022-11-01T21:19:55.389Z,12.20
2022-11-01T21:22:21.806Z,10.35
2022-11-01T21:24:49.491Z,10.77
2022-11-01T21:27:41.874Z,12.88
2022-11-01T21:30:19.639Z,5.18
2022-11-01T21:32:46.579Z,11.70
2022-11-01T21:35:38.714Z,10.35
2022-11-01T21:38:33.547Z,11.52
2022-11-01T21:41:00.389Z,8.70
2022-11-01T21:43:33.196Z,9.70
2022-11-01T21:45:59.499Z,12.75
2022-11-01T21:48:29.126Z,13.07
2022-11-01T21:50:56.268Z,9.88
2022-11-01T21:53:22.632Z,11.43
2022-11-01T21:55:49.062Z,12.07
2022-11-01T21:58:15.375Z,7.68
2022-11-01T22:00:41.750Z,12.82
2022-11-01T22:03:08.079Z,10.57
2022-11-01T22:05:34.411Z,10.02
2022-11-01T22:08:00.714Z,10.82
2022-11-01T22:10:27.049Z,10.90
2022-11-01T22:12:53.504Z,11.80
2022-11-01T22:15:19.832Z,15.02
2022-11-01T22:17:46.239Z,7.47
2022-11-01T22:20:12.667Z,10.10
2022-11-01T22:22:38.993Z,11.18
2022-11-01T22:25:05.803Z,11.27
2022-11-01T22:27:32.104Z,10.85
2022-11-01T22:29:58.463Z,8.63
2022-11-01T22:32:24.818Z,15.65
2022-11-01T22:34:51.671Z,14.23
2022-11-01T22:37:18.009Z,9.88
2022-11-01T22:39:46.955Z,13.20
2022-11-01T22:42:15.789Z,9.00
2022-11-01T22:44:46.084Z,11.93
2022-11-01T22:47:27.944Z,12.20
2022-11-01T22:49:57.042Z,12.55
2022-11-01T22:52:26.052Z,14.93
2022-11-01T22:55:02.268Z,16.55
2022-11-01T22:57:32.840Z,10.30
2022-11-01T23:00:02.195Z,7.90
2022-11-01T23:02:29.559Z,13.90
2022-11-01T23:05:08.337Z,12.82
2022-11-01T23:07:35.773Z,13.00
2022-11-01T23:10:19.958Z,11.60
2022-11-01T23:12:46.469Z,9.95
2022-11-01T23:15:30.575Z,13.70
2022-11-01T23:18:15.507Z,14.93
2022-11-01T23:20:43.236Z,12.93
2022-11-01T23:23:17.863Z,10.18
2022-11-01T23:25:44.510Z,11.25
2022-11-01T23:28:12.241Z,12.48
2022-11-01T23:30:39.504Z,16.92
2022-11-01T23:33:11.554Z,10.70
2022-11-01T23:35:37.864Z,12.70
2022-11-01T23:38:15.235Z,10.10
2022-11-01T23:40:41.772Z,14.65
2022-11-01T23:43:20.650Z,20.02
2022-11-01T23:45:47.357Z,12.70
2022-11-01T23:48:13.723Z,14.52
2022-11-01T23:50:40.041Z,11.90
2022-11-01T23:53:12.088Z,11.38
2022-11-01T23:55:40.953Z,17.73
2022-11-01T23:58:11.729Z,10.93
